createdAt,value
2022-11-05T00:00:39.278Z,87.77
2022-11-05T00:03:26.877Z,88.05
2022-11-05T00:06:13.256Z,87.39
2022-11-05T00:09:00.176Z,86.90
2022-11-05T00:11:45.787Z,87.04
2022-11-05T00:14:31.801Z,87.56
2022-11-05T00:17:01.180Z,87.18
2022-11-05T00:19:32.576Z,86.55
2022-11-05T00:22:17.878Z,85.89
2022-11-05T00:25:03.286Z,86.34
2022-11-05T00:27:34.099Z,85.93
2022-11-05T00:30:03.807Z,85.83
2022-11-05T00:32:33.785Z,86.10
2022-11-05T00:35:03.886Z,86.38
2022-11-05T00:37:30.874Z,86.62
2022-11-05T00:40:03.477Z,86.48
2022-11-05T00:42:49.074Z,86.76
2022-11-05T00:45:16.225Z,87.02
2022-11-05T00:48:04.429Z,86.89
2022-11-05T00:50:36.535Z,86.71
2022-11-05T00:53:04.052Z,86.52
2022-11-05T00:55:43.093Z,86.51
2022-11-05T00:58:13.941Z,86.72
2022-11-05T01:00:44.343Z,87.21
2022-11-05T01:03:15.382Z,86.88
2022-11-05T01:05:55.431Z,87.22
2022-11-05T01:08:26.068Z,86.74
2022-11-05T01:10:56.806Z,86.75
2022-11-05T01:13:31.317Z,86.86
2022-11-05T01:16:07.219Z,86.24
2022-11-05T01:18:36.548Z,86.74
2022-11-05T01:21:14.525Z,87.41
2022-11-05T01:23:43.591Z,86.54
2022-11-05T01:26:13.895Z,86.54
2022-11-05T01:28:43.426Z,87.30
2022-11-05T01:31:10.307Z,86.81
2022-11-05T01:33:37.175Z,88.64
2022-11-05T01:36:05.445Z,88.04
2022-11-05T01:38:34.798Z,89.10
2022-11-05T01:41:01.636Z,88.92
2022-11-05T01:43:56.713Z,88.98
2022-11-05T01:46:45.294Z,88.68
2022-11-05T01:49:21.698Z,88.59
2022-11-05T01:51:49.093Z,88.53
2022-11-05T01:54:20.954Z,88.73
2022-11-05T01:56:53.690Z,88.91
2022-11-05T01:59:43.872Z,88.71
2022-11-05T02:02:10.999Z,87.42
2022-11-05T02:04:46.813Z,88.02
2022-11-05T02:07:17.299Z,88.20
2022-11-05T02:09:59.520Z,88.29
2022-11-05T02:12:28.952Z,86.85
2022-11-05T02:15:05.166Z,87.06
2022-11-05T02:18:16.680Z,86.78
2022-11-05T02:21:28.285Z,87.19
2022-11-05T02:24:32.817Z,87.42
2022-11-05T02:27:40.365Z,87.65
2022-11-05T02:30:25.511Z,87.58
2022-11-05T02:33:15.357Z,87.87
2022-11-05T02:36:11.111Z,88.07
2022-11-05T02:38:58.560Z,87.91
2022-11-05T02:41:32.553Z,87.54
2022-11-05T02:44:22.938Z,86.38
2022-11-05T02:47:19.565Z,87.32
2022-11-05T02:50:03.282Z,86.29
2022-11-05T02:53:04.363Z,86.74
2022-11-05T02:55:54.453Z,86.50
2022-11-05T02:58:21.897Z,87.04
2022-11-05T03:00:57.212Z,86.49
2022-11-05T03:03:27.456Z,86.39
2022-11-05T03:06:15.503Z,86.70
2022-11-05T03:08:48.204Z,87.08
2022-11-05T03:11:34.001Z,86.59
2022-11-05T03:14:52.210Z,87.12
2022-11-05T03:18:15.971Z,86.25
2022-11-05T03:21:08.637Z,86.87
2022-11-05T03:23:48.168Z,86.62
2022-11-05T03:26:33.811Z,87.97
2022-11-05T03:29:22.542Z,88.37
2022-11-05T03:31:52.747Z,88.58
2022-11-05T03:34:29.355Z,87.90
2022-11-05T03:37:00.340Z,88.56
2022-11-05T03:39:37.744Z,89.11
2022-11-05T03:42:11.186Z,89.01
2022-11-05T03:44:45.174Z,89.58
2022-11-05T03:47:21.264Z,89.38
2022-11-05T03:49:59.601Z,89.14
2022-11-05T03:52:36.355Z,88.94
2022-11-05T03:55:08.662Z,88.46
2022-11-05T03:57:40.959Z,89.11
2022-11-05T04:00:10.355Z,89.56
2022-11-05T04:02:38.409Z,89.17
2022-11-05T04:05:07.484Z,89.83
2022-11-05T04:07:55.367Z,89.57
2022-11-05T04:10:43.440Z,88.17
2022-11-05T04:13:28.810Z,88.44
2022-11-05T04:16:15.586Z,88.45
2022-11-05T04:18:43.242Z,88.29
2022-11-05T04:21:32.079Z,87.95
2022-11-05T04:24:09.848Z,88.54
2022-11-05T04:26:43.923Z,88.22
2022-11-05T04:29:32.266Z,89.60
2022-11-05T04:32:01.615Z,88.53
2022-11-05T04:34:28.519Z,89.56
2022-11-05T04:36:55.349Z,88.68
2022-11-05T04:39:24.661Z,88.73
2022-11-05T04:41:53.585Z,87.96
2022-11-05T04:44:22.710Z,89.43
2022-11-05T04:46:49.494Z,89.38
2022-11-05T04:49:18.518Z,89.76
2022-11-05T04:51:45.337Z,89.33
2022-11-05T04:54:12.187Z,88.33
2022-11-05T04:56:39.027Z,90.64
2022-11-05T04:59:05.919Z,90.30
2022-11-05T05:01:35.807Z,90.32
2022-11-05T05:04:02.903Z,90.80
2022-11-05T05:06:29.705Z,91.83
2022-11-05T05:08:56.531Z,91.86
2022-11-05T05:11:23.450Z,91.77
2022-11-05T05:13:50.692Z,90.63
2022-11-05T05:16:26.455Z,91.63
2022-11-05T05:18:54.409Z,90.72
2022-11-05T05:21:41.713Z,90.61
2022-11-05T05:24:18.527Z,89.85
2022-11-05T05:26:49.977Z,89.27
2022-11-05T05:29:18.072Z,89.29
2022-11-05T05:31:44.998Z,89.50
2022-11-05T05:34:15.236Z,90.39
2022-11-05T05:36:42.156Z,90.09
2022-11-05T05:39:10.982Z,90.10
2022-11-05T05:41:40.500Z,89.48
2022-11-05T05:44:09.955Z,89.78
2022-11-05T05:46:36.810Z,89.58
2022-11-05T05:49:09.432Z,89.72
2022-11-05T05:51:43.880Z,90.08
2022-11-05T05:54:11.868Z,88.41
2022-11-05T05:56:38.740Z,89.41
2022-11-05T05:59:06.330Z,89.95
2022-11-05T06:01:33.813Z,89.67
2022-11-05T06:04:00.690Z,90.04
2022-11-05T06:06:32.598Z,90.15
2022-11-05T06:08:59.487Z,90.73
2022-11-05T06:11:26.442Z,89.63
2022-11-05T06:13:53.329Z,90.74
2022-11-05T06:16:20.317Z,90.27
2022-11-05T06:18:52.002Z,89.89
2022-11-05T06:21:24.822Z,89.54
2022-11-05T06:23:51.661Z,89.79
2022-11-05T06:26:20.027Z,89.16
2022-11-05T06:28:49.322Z,89.43
2022-11-05T06:31:16.166Z,89.63
2022-11-05T06:33:45.257Z,88.91
2022-11-05T06:36:20.042Z,88.69
2022-11-05T06:38:47.035Z,87.97
2022-11-05T06:41:17.043Z,89.50
2022-11-05T06:43:43.925Z,88.37
2022-11-05T06:46:17.300Z,89.42
2022-11-05T06:48:47.338Z,89.93
2022-11-05T06:51:14.238Z,88.69
2022-11-05T06:53:41.051Z,88.60
2022-11-05T06:56:08.311Z,88.47
2022-11-05T06:58:35.478Z,87.37
2022-11-05T07:01:10.055Z,87.09
2022-11-05T07:03:38.249Z,84.78
2022-11-05T07:06:09.300Z,78.21
2022-11-05T07:08:40.051Z,74.92
2022-11-05T07:11:07.081Z,70.26
2022-11-05T07:13:36.345Z,66.70
2022-11-05T07:16:03.202Z,64.97
2022-11-05T07:18:30.024Z,61.73
2022-11-05T07:20:59.343Z,60.49
2022-11-05T07:23:26.334Z,59.69
2022-11-05T07:25:53.257Z,55.95
2022-11-05T07:28:20.077Z,53.49
2022-11-05T07:30:49.233Z,51.27
2022-11-05T07:33:18.161Z,51.02
2022-11-05T07:35:47.497Z,48.71
2022-11-05T07:38:14.343Z,48.28
2022-11-05T07:40:41.194Z,47.48
2022-11-05T07:43:08.158Z,47.35
2022-11-05T07:45:37.331Z,47.11
2022-11-05T07:48:05.269Z,45.83
2022-11-05T07:50:35.531Z,45.82
2022-11-05T07:53:21.402Z,43.53
2022-11-05T07:55:48.262Z,43.14
2022-11-05T07:58:15.085Z,42.40
2022-11-05T08:00:42.035Z,42.38
2022-11-05T08:03:14.697Z,43.52
2022-11-05T08:05:44.836Z,42.30
2022-11-05T08:08:17.015Z,40.21
2022-11-05T08:10:46.985Z,39.62
2022-11-05T08:13:17.209Z,38.68
2022-11-05T08:15:44.999Z,38.61
2022-11-05T08:18:16.084Z,38.86
2022-11-05T08:20:44.730Z,39.34
2022-11-05T08:23:12.247Z,39.94
2022-11-05T08:25:39.890Z,39.07
2022-11-05T08:28:11.134Z,39.77
2022-11-05T08:30:40.767Z,40.30
2022-11-05T08:33:13.272Z,38.59
2022-11-05T08:35:45.682Z,36.59
2022-11-05T08:38:15.477Z,38.94
2022-11-05T08:40:45.543Z,38.03
2022-11-05T08:43:14.522Z,40.34
2022-11-05T08:45:44.272Z,38.26
2022-11-05T08:48:18.336Z,36.98
2022-11-05T08:50:47.634Z,35.15
2022-11-05T08:53:15.706Z,35.89
2022-11-05T08:55:44.109Z,33.23
2022-11-05T08:58:16.867Z,33.21
2022-11-05T09:00:47.000Z,36.14
2022-11-05T09:03:15.095Z,36.38
2022-11-05T09:05:43.290Z,36.26
2022-11-05T09:08:19.168Z,35.76
2022-11-05T09:10:50.044Z,35.77
2022-11-05T09:13:19.742Z,33.32
2022-11-05T09:15:55.497Z,33.27
2022-11-05T09:18:24.827Z,33.57
2022-11-05T09:20:51.972Z,33.13
2022-11-05T09:23:20.987Z,32.76
2022-11-05T09:25:48.222Z,32.03
2022-11-05T09:28:21.330Z,30.15
2022-11-05T09:30:55.819Z,29.81
2022-11-05T09:33:25.408Z,31.47
2022-11-05T09:35:53.545Z,32.33
2022-11-05T09:38:20.731Z,33.36
2022-11-05T09:41:02.976Z,32.51
2022-11-05T09:43:58.233Z,31.71
2022-11-05T09:46:31.142Z,35.53
2022-11-05T09:49:17.002Z,33.81
2022-11-05T09:51:44.118Z,31.93
2022-11-05T09:54:19.521Z,34.35
2022-11-05T09:56:47.028Z,31.82
2022-11-05T09:59:47.426Z,30.02
2022-11-05T10:02:20.895Z,29.20
2022-11-05T10:04:53.251Z,30.74
2022-11-05T10:07:24.801Z,29.96
2022-11-05T10:10:50.800Z,33.29
2022-11-05T10:13:40.879Z,31.77
2022-11-05T10:16:20.048Z,32.25
2022-11-05T10:19:11.779Z,29.69
2022-11-05T10:22:04.737Z,29.43
2022-11-05T10:24:27.381Z,29.05
2022-11-05T10:26:57.986Z,33.93
2022-11-05T10:29:34.184Z,39.59
2022-11-05T10:32:05.584Z,39.16
2022-11-05T10:34:36.264Z,35.89
2022-11-05T10:37:06.683Z,31.68
2022-11-05T10:39:37.417Z,28.99
2022-11-05T10:42:28.809Z,27.25
2022-11-05T10:45:07.921Z,25.69
2022-11-05T10:48:21.775Z,25.73
2022-11-05T10:50:49.239Z,24.79
2022-11-05T10:53:27.078Z,27.08
2022-11-05T10:55:59.079Z,28.64
2022-11-05T10:58:32.608Z,28.32
2022-11-05T11:01:01.255Z,26.28
2022-11-05T11:03:49.527Z,24.57
2022-11-05T11:06:19.058Z,25.90
2022-11-05T11:08:48.260Z,29.45
2022-11-05T11:11:29.469Z,29.46
2022-11-05T11:14:09.800Z,27.57
2022-11-05T11:16:43.931Z,27.38
2022-11-05T11:19:31.883Z,25.80
2022-11-05T11:22:04.883Z,25.92
2022-11-05T11:24:54.795Z,26.41
2022-11-05T11:27:28.501Z,27.37
2022-11-05T11:30:06.339Z,27.15
2022-11-05T11:32:40.514Z,27.65
2022-11-05T11:35:21.079Z,28.46
2022-11-05T11:37:49.537Z,30.60
2022-11-05T11:40:31.636Z,31.12
2022-11-05T11:43:14.764Z,29.73
2022-11-05T11:45:50.324Z,29.12
2022-11-05T11:48:28.559Z,28.27
2022-11-05T11:50:58.642Z,29.54
2022-11-05T11:53:29.071Z,28.80
2022-11-05T11:55:55.844Z,28.10
2022-11-05T11:58:48.463Z,28.17
2022-11-05T12:01:48.587Z,26.69
2022-11-05T12:04:25.580Z,25.47
2022-11-05T12:07:13.818Z,27.06
2022-11-05T12:10:26.022Z,30.22
2022-11-05T12:13:14.511Z,30.47
2022-11-05T12:16:16.149Z,32.02
2022-11-05T12:19:28.430Z,29.21
2022-11-05T12:22:33.085Z,28.70
2022-11-05T12:25:33.815Z,27.28
2022-11-05T12:28:31.519Z,27.82
2022-11-05T12:31:51.860Z,31.38
2022-11-05T12:34:39.287Z,30.71
2022-11-05T12:37:28.487Z,30.03
2022-11-05T12:40:13.486Z,29.53
2022-11-05T12:42:55.646Z,31.21
2022-11-05T12:45:47.892Z,31.83
2022-11-05T12:48:57.976Z,30.35
2022-11-05T12:51:50.607Z,30.70
2022-11-05T12:54:52.697Z,32.96
2022-11-05T12:57:25.396Z,30.89
2022-11-05T13:00:04.483Z,32.30
2022-11-05T13:02:48.385Z,33.00
2022-11-05T13:05:40.379Z,33.65
2022-11-05T13:08:44.143Z,33.26
2022-11-05T13:11:21.283Z,34.64
2022-11-05T13:14:09.101Z,32.61
2022-11-05T13:16:50.018Z,34.12
2022-11-05T13:19:26.823Z,35.04
2022-11-05T13:22:14.652Z,35.64
2022-11-05T13:24:51.158Z,36.94
2022-11-05T13:27:38.670Z,39.67
2022-11-05T13:30:18.015Z,41.79
2022-11-05T13:33:13.015Z,41.13
2022-11-05T13:36:33.089Z,39.54
2022-11-05T13:39:16.304Z,38.91
2022-11-05T13:42:10.409Z,42.97
2022-11-05T13:45:02.210Z,44.62
2022-11-05T13:48:25.649Z,42.09
2022-11-05T13:51:25.892Z,42.62
2022-11-05T13:54:44.126Z,39.62
2022-11-05T13:57:41.064Z,38.47
2022-11-05T14:01:00.999Z,41.43
2022-11-05T14:03:28.744Z,45.21
2022-11-05T14:06:11.030Z,48.78
2022-11-05T14:08:45.318Z,48.05
2022-11-05T14:11:35.783Z,49.48
2022-11-05T14:14:16.023Z,51.07
2022-11-05T14:17:13.033Z,52.84
2022-11-05T14:20:03.036Z,53.48
2022-11-05T14:22:32.904Z,53.64
2022-11-05T14:25:22.936Z,52.71
2022-11-05T14:27:52.844Z,51.63
2022-11-05T14:30:46.278Z,51.31
2022-11-05T14:33:37.580Z,49.69
2022-11-05T14:36:36.084Z,50.60
2022-11-05T14:39:39.567Z,54.72
2022-11-05T14:42:27.100Z,55.70
2022-11-05T14:45:01.188Z,55.10
2022-11-05T14:47:40.491Z,58.02
2022-11-05T14:50:18.387Z,59.40
2022-11-05T14:53:11.467Z,58.30
2022-11-05T14:55:45.836Z,59.10
2022-11-05T14:58:37.467Z,59.92
2022-11-05T15:01:31.934Z,62.24
2022-11-05T15:04:45.264Z,62.69
2022-11-05T15:07:32.234Z,62.96
2022-11-05T15:10:18.194Z,64.18
2022-11-05T15:13:01.870Z,63.94
2022-11-05T15:15:32.757Z,64.39
2022-11-05T15:18:40.961Z,65.03
2022-11-05T15:21:14.252Z,66.61
2022-11-05T15:23:47.097Z,66.30
2022-11-05T15:26:34.543Z,67.20
2022-11-05T15:29:01.608Z,67.36
2022-11-05T15:31:28.381Z,68.31
2022-11-05T15:34:35.674Z,68.23
2022-11-05T15:37:22.235Z,68.64
2022-11-05T15:39:52.384Z,67.81
2022-11-05T15:42:25.986Z,67.15
2022-11-05T15:44:59.138Z,67.84
2022-11-05T15:47:37.249Z,67.38
2022-11-05T15:50:15.032Z,69.22
2022-11-05T15:53:09.528Z,69.57
2022-11-05T15:56:02.103Z,70.29
2022-11-05T15:58:31.259Z,69.96
2022-11-05T16:01:02.859Z,71.47
2022-11-05T16:03:32.686Z,70.85
2022-11-05T16:06:01.720Z,72.28
2022-11-05T16:08:31.488Z,72.21
2022-11-05T16:11:04.145Z,72.56
2022-11-05T16:13:38.984Z,71.77
2022-11-05T16:16:15.706Z,71.08
2022-11-05T16:18:46.187Z,71.75
2022-11-05T16:21:18.887Z,71.54
2022-11-05T16:23:48.663Z,71.32
2022-11-05T16:29:29.462Z,71.97
2022-11-05T16:31:58.119Z,71.71
2022-11-05T16:34:41.242Z,72.46
2022-11-05T16:37:16.210Z,73.55
2022-11-05T16:39:45.594Z,73.33
2022-11-05T16:42:38.036Z,73.97
2022-11-05T16:45:06.430Z,73.52
2022-11-05T16:47:35.758Z,74.45
2022-11-05T16:50:19.091Z,72.99
2022-11-05T16:52:48.585Z,73.40
2022-11-05T16:55:17.184Z,75.13
2022-11-05T16:57:55.666Z,74.91
2022-11-05T17:00:24.586Z,75.48
2022-11-05T17:02:54.532Z,75.34
2022-11-05T17:05:28.824Z,74.95
2022-11-05T17:07:56.492Z,76.23
2022-11-05T17:10:25.658Z,74.74
2022-11-05T17:12:56.024Z,74.83
2022-11-05T17:15:29.437Z,74.83
2022-11-05T17:17:57.987Z,75.76
2022-11-05T17:20:41.120Z,75.94
2022-11-05T17:23:16.440Z,75.02
2022-11-05T17:25:48.941Z,75.64
2022-11-05T17:28:16.870Z,74.65
2022-11-05T17:30:53.152Z,74.05
2022-11-05T17:33:25.323Z,75.41
2022-11-05T17:35:55.665Z,75.25
2022-11-05T17:38:24.669Z,74.86
2022-11-05T17:40:52.115Z,75.40
2022-11-05T17:43:21.950Z,74.92
2022-11-05T17:45:52.785Z,74.98
2022-11-05T17:48:20.989Z,74.59
2022-11-05T17:50:51.240Z,75.49
2022-11-05T17:53:21.777Z,75.04
2022-11-05T17:55:55.743Z,76.76
2022-11-05T17:58:29.423Z,76.94
2022-11-05T18:00:58.691Z,76.30
2022-11-05T18:03:28.027Z,76.03
2022-11-05T18:06:07.503Z,77.10
2022-11-05T18:08:39.909Z,76.55
2022-11-05T18:11:06.745Z,76.82
2022-11-05T18:13:33.599Z,77.07
2022-11-05T18:16:00.440Z,77.25
2022-11-05T18:18:30.266Z,76.91
2022-11-05T18:20:58.736Z,76.46
2022-11-05T18:23:30.683Z,76.62
2022-11-05T18:25:57.824Z,76.97
2022-11-05T18:28:29.873Z,75.96
2022-11-05T18:30:58.960Z,76.49
2022-11-05T18:33:25.820Z,76.80
2022-11-05T18:35:55.113Z,76.43
2022-11-05T18:38:21.944Z,77.54
2022-11-05T18:40:48.795Z,75.77
2022-11-05T18:43:17.725Z,75.40
2022-11-05T18:45:44.611Z,76.03
2022-11-05T18:48:11.777Z,75.28
2022-11-05T18:50:44.046Z,77.10
2022-11-05T18:53:11.016Z,77.45
2022-11-05T18:55:42.415Z,76.52
2022-11-05T18:58:11.807Z,75.55
2022-11-05T19:00:40.287Z,76.03
2022-11-05T19:03:07.703Z,76.92
2022-11-05T19:05:37.032Z,74.81
2022-11-05T19:08:04.062Z,75.57
2022-11-05T19:10:33.086Z,75.78
2022-11-05T19:13:02.911Z,76.40
2022-11-05T19:15:29.782Z,75.91
2022-11-05T19:17:56.931Z,75.53
2022-11-05T19:20:23.816Z,75.96
2022-11-05T19:22:52.967Z,75.00
2022-11-05T19:25:24.292Z,76.79
2022-11-05T19:27:58.010Z,75.59
2022-11-05T19:30:27.829Z,75.67
2022-11-05T19:32:57.302Z,76.20
2022-11-05T19:35:24.165Z,76.42
2022-11-05T19:37:53.431Z,76.87
2022-11-05T19:40:20.742Z,76.03
2022-11-05T19:42:47.758Z,76.85
2022-11-05T19:45:42.920Z,77.20
2022-11-05T19:48:06.671Z,78.10
2022-11-05T19:50:42.104Z,77.41
2022-11-05T19:53:11.499Z,76.23
2022-11-05T19:55:42.301Z,77.74
2022-11-05T19:58:12.220Z,77.34
2022-11-05T20:00:42.154Z,77.18
2022-11-05T20:03:15.188Z,76.41
2022-11-05T20:05:44.724Z,76.65
2022-11-05T20:08:11.823Z,76.43
2022-11-05T20:10:38.857Z,75.69
2022-11-05T20:13:05.709Z,76.53
2022-11-05T20:15:41.691Z,76.53
2022-11-05T20:18:16.506Z,77.01
2022-11-05T20:20:47.219Z,76.89
2022-11-05T20:23:14.847Z,76.65
2022-11-05T20:25:43.804Z,76.78
2022-11-05T20:28:10.993Z,77.43
2022-11-05T20:30:41.569Z,77.49
2022-11-05T20:33:08.409Z,76.86
2022-11-05T20:35:39.407Z,77.68
2022-11-05T20:38:06.264Z,77.91
2022-11-05T20:40:33.092Z,77.68
2022-11-05T20:42:59.972Z,77.98
2022-11-05T20:45:26.778Z,77.36
2022-11-05T20:47:53.591Z,77.63
2022-11-05T20:50:22.668Z,76.86
2022-11-05T20:52:52.027Z,76.87
2022-11-05T20:55:21.097Z,77.28
2022-11-05T20:57:50.457Z,77.97
2022-11-05T21:00:19.856Z,77.82
2022-11-05T21:02:48.946Z,78.22
2022-11-05T21:05:19.261Z,77.27
2022-11-05T21:07:46.067Z,76.27
2022-11-05T21:10:16.008Z,76.92
2022-11-05T21:12:45.035Z,76.86
2022-11-05T21:15:14.933Z,76.36
2022-11-05T21:17:41.844Z,76.06
2022-11-05T21:20:14.173Z,75.95
2022-11-05T21:22:45.802Z,75.35
2022-11-05T21:25:13.052Z,75.08
2022-11-05T21:27:52.000Z,75.72
2022-11-05T21:30:18.960Z,74.85
2022-11-05T21:32:48.338Z,74.86
2022-11-05T21:35:16.451Z,74.50
2022-11-05T21:37:46.051Z,75.55
2022-11-05T21:40:12.983Z,74.48
2022-11-05T21:42:42.734Z,75.03
2022-11-05T21:45:10.699Z,73.21
2022-11-05T21:47:39.833Z,74.28
2022-11-05T21:50:07.390Z,73.63
2022-11-05T21:52:52.653Z,74.19
2022-11-05T21:55:43.337Z,74.30
2022-11-05T21:58:35.531Z,74.27
2022-11-05T22:01:05.401Z,74.14
2022-11-05T22:03:32.231Z,73.80
2022-11-05T22:05:59.065Z,74.74
2022-11-05T22:08:28.503Z,74.11
2022-11-05T22:10:58.313Z,74.14
2022-11-05T22:13:25.134Z,73.49
2022-11-05T22:15:56.396Z,74.11
2022-11-05T22:18:23.217Z,74.59
2022-11-05T22:20:52.082Z,73.80
2022-11-05T22:23:18.958Z,73.76
2022-11-05T22:25:48.007Z,73.97
2022-11-05T22:28:15.037Z,73.40
2022-11-05T22:30:42.206Z,72.48
2022-11-05T22:33:11.273Z,72.33
2022-11-05T22:35:39.898Z,72.36
2022-11-05T22:38:06.705Z,72.73
2022-11-05T22:40:38.239Z,73.06
2022-11-05T22:43:05.065Z,72.41
2022-11-05T22:45:38.561Z,72.38
2022-11-05T22:48:08.107Z,72.03
2022-11-05T22:50:34.923Z,71.50
2022-11-05T22:53:01.755Z,70.25
2022-11-05T22:55:28.774Z,72.26
2022-11-05T22:58:00.414Z,72.53
2022-11-05T23:00:36.579Z,72.93
2022-11-05T23:03:03.553Z,72.98
2022-11-05T23:05:30.499Z,72.62
2022-11-05T23:08:16.149Z,72.75
2022-11-05T23:11:01.413Z,73.33
2022-11-05T23:13:28.574Z,73.39
2022-11-05T23:16:13.977Z,73.67
2022-11-05T23:18:59.365Z,73.52
2022-11-05T23:21:44.843Z,72.90
2022-11-05T23:24:13.372Z,72.99
2022-11-05T23:26:52.315Z,72.27
2022-11-05T23:29:26.471Z,71.45
2022-11-05T23:32:12.839Z,72.35
2022-11-05T23:34:42.262Z,71.76
2022-11-05T23:37:27.892Z,70.79
2022-11-05T23:39:57.285Z,71.06
2022-11-05T23:42:42.970Z,71.62
2022-11-05T23:45:29.089Z,72.34
2022-11-05T23:48:14.756Z,72.50
2022-11-05T23:50:44.921Z,72.41
2022-11-05T23:53:14.301Z,72.40
2022-11-05T23:55:41.173Z,71.99
2022-11-05T23:58:11.149Z,71.64
